createdAt,value
2022-12-24T00:01:41.183Z,99955.91
2022-12-24T00:04:11.410Z,99992.06
2022-12-24T00:06:39.504Z,99998.88
2022-12-24T00:09:06.935Z,99974.91
2022-12-24T00:11:34.169Z,99939.53
2022-12-24T00:14:01.744Z,99916.16
2022-12-24T00:16:29.033Z,99893.53
2022-12-24T00:18:56.382Z,99908.94
2022-12-24T00:21:23.603Z,99966.91
2022-12-24T00:23:53.540Z,100009.94
2022-12-24T00:26:20.905Z,99990.06
2022-12-24T00:28:48.190Z,99986.88
2022-12-24T00:31:18.889Z,99992.28
2022-12-24T00:33:50.284Z,100007.97
2022-12-24T00:36:21.610Z,100046.94
2022-12-24T00:38:51.988Z,100034.06
2022-12-24T00:41:28.637Z,100009.69
2022-12-24T00:44:06.846Z,99995.78
2022-12-24T00:46:35.233Z,99989.47
2022-12-24T00:49:04.932Z,100009.50
2022-12-24T00:51:33.133Z,100018.16
2022-12-24T00:54:01.912Z,100032.06
2022-12-24T00:56:31.603Z,100036.34
2022-12-24T00:58:59.006Z,100026.88
2022-12-24T01:01:27.621Z,100035.88
2022-12-24T01:04:16.067Z,100043.38
2022-12-24T01:06:44.184Z,100035.56
2022-12-24T01:09:11.692Z,100044.16
2022-12-24T01:11:39.326Z,100033.09
2022-12-24T01:14:06.595Z,100030.69
2022-12-24T01:16:34.075Z,100031.56
2022-12-24T01:19:01.368Z,100045.16
2022-12-24T01:21:31.520Z,100071.03
2022-12-24T01:24:00.883Z,100042.47
2022-12-24T01:26:28.023Z,100038.28
2022-12-24T01:28:57.355Z,100052.16
2022-12-24T01:31:24.706Z,100033.09
2022-12-24T01:33:52.045Z,100051.28
2022-12-24T01:36:19.195Z,100060.84
2022-12-24T01:38:46.463Z,100067.84
2022-12-24T01:41:42.143Z,100060.06
2022-12-24T01:44:36.444Z,100044.66
2022-12-24T01:47:21.456Z,100032.72
2022-12-24T01:49:58.138Z,100038.03
2022-12-24T01:52:34.448Z,100014.53
2022-12-24T01:55:12.495Z,100011.94
2022-12-24T01:57:56.964Z,99995.44
2022-12-24T02:00:24.483Z,99974.50
2022-12-24T02:02:54.016Z,99964.00
2022-12-24T02:05:51.886Z,99980.50
2022-12-24T02:08:20.434Z,100014.88
2022-12-24T02:10:49.197Z,100016.69
2022-12-24T02:13:20.676Z,99989.13
2022-12-24T02:16:22.582Z,99990.00
2022-12-24T02:19:32.301Z,99979.84
2022-12-24T02:22:27.036Z,99964.25
2022-12-24T02:25:51.759Z,100010.69
2022-12-24T02:29:23.172Z,100005.59
2022-12-24T02:32:06.006Z,99999.03
2022-12-24T02:34:58.823Z,100020.53
2022-12-24T02:37:36.721Z,100020.28
2022-12-24T02:40:19.706Z,100013.28
2022-12-24T02:42:55.488Z,100021.88
2022-12-24T02:45:29.899Z,100020.09
2022-12-24T02:47:57.682Z,100007.88
2022-12-24T02:50:26.425Z,99991.41
2022-12-24T02:52:54.116Z,100025.06
2022-12-24T02:55:47.159Z,100065.03
2022-12-24T02:59:11.856Z,100058.25
2022-12-24T03:02:09.392Z,100055.66
2022-12-24T03:05:40.331Z,100029.78
2022-12-24T03:08:56.372Z,100013.47
2022-12-24T03:11:23.605Z,100014.19
2022-12-24T03:13:52.937Z,100025.38
2022-12-24T03:16:27.705Z,100024.81
2022-12-24T03:18:57.874Z,100036.75
2022-12-24T03:21:32.431Z,100046.28
2022-12-24T03:24:00.503Z,100038.38
2022-12-24T03:26:31.592Z,100037.69
2022-12-24T03:28:59.615Z,100032.72
2022-12-24T03:31:26.932Z,100025.13
2022-12-24T03:33:54.141Z,100026.91
2022-12-24T03:36:21.330Z,100007.16
2022-12-24T03:38:48.583Z,100001.03
2022-12-24T03:41:15.939Z,99994.06
2022-12-24T03:43:43.169Z,100007.75
2022-12-24T03:46:10.443Z,100011.94
2022-12-24T03:48:37.851Z,100004.81
2022-12-24T03:51:05.581Z,100005.16
2022-12-24T03:53:32.840Z,100012.94
2022-12-24T03:56:00.118Z,100024.13
2022-12-24T03:58:27.447Z,100025.72
2022-12-24T04:00:54.768Z,100035.44
2022-12-24T04:03:22.185Z,100040.28
2022-12-24T04:06:07.460Z,100043.69
2022-12-24T04:08:36.688Z,100042.66
2022-12-24T04:11:14.202Z,100039.97
2022-12-24T04:13:41.491Z,100010.88
2022-12-24T04:16:13.755Z,99988.53
2022-12-24T04:18:42.208Z,99992.94
2022-12-24T04:21:10.829Z,99992.16
2022-12-24T04:23:41.214Z,99981.66
2022-12-24T04:26:12.425Z,99978.16
2022-12-24T04:28:41.621Z,99970.13
2022-12-24T04:31:15.519Z,99968.31
2022-12-24T04:33:44.211Z,99968.22
2022-12-24T04:36:19.500Z,99981.31
2022-12-24T04:38:48.530Z,99980.50
2022-12-24T04:41:24.272Z,99981.41
2022-12-24T04:43:54.346Z,99976.22
2022-12-24T04:46:33.589Z,99969.91
2022-12-24T04:49:00.907Z,99980.41
2022-12-24T04:51:29.381Z,99985.94
2022-12-24T04:53:57.196Z,100004.94
2022-12-24T04:56:29.631Z,100013.47
2022-12-24T04:58:58.271Z,100029.78
2022-12-24T05:01:33.153Z,100020.09
2022-12-24T05:04:01.552Z,100019.63
2022-12-24T05:06:34.033Z,100018.16
2022-12-24T05:09:01.715Z,100038.03
2022-12-24T05:11:29.784Z,100049.88
2022-12-24T05:13:57.164Z,100060.25
2022-12-24T05:16:25.183Z,100057.56
2022-12-24T05:18:52.906Z,100049.75
2022-12-24T05:21:25.768Z,100046.28
2022-12-24T05:24:12.129Z,100040.53
2022-12-24T05:26:53.421Z,100029.31
2022-12-24T05:29:21.120Z,100030.69
2022-12-24T05:31:48.249Z,100022.31
2022-12-24T05:34:16.983Z,100010.34
2022-12-24T05:36:45.144Z,100010.44
2022-12-24T05:39:18.379Z,100015.75
2022-12-24T05:41:46.385Z,100016.53
2022-12-24T05:44:16.003Z,100014.28
2022-12-24T05:46:44.411Z,100026.06
2022-12-24T05:49:11.856Z,100027.69
2022-12-24T05:51:40.310Z,100017.59
2022-12-24T05:54:08.254Z,100021.28
2022-12-24T05:56:35.424Z,100024.94
2022-12-24T05:59:02.746Z,100021.41
2022-12-24T06:01:29.920Z,100023.88
2022-12-24T06:03:57.837Z,100028.66
2022-12-24T06:06:28.427Z,100019.38
2022-12-24T06:08:55.964Z,100008.28
2022-12-24T06:11:27.100Z,100012.59
2022-12-24T06:13:54.715Z,100021.88
2022-12-24T06:16:24.302Z,100040.88
2022-12-24T06:18:52.132Z,100046.75
2022-12-24T06:21:20.102Z,100039.06
2022-12-24T06:23:47.866Z,100038.38
2022-12-24T06:26:20.361Z,100023.66
2022-12-24T06:28:49.871Z,100016.88
2022-12-24T06:31:22.468Z,100010.88
2022-12-24T06:33:51.100Z,100006.50
2022-12-24T06:36:23.811Z,100005.69
2022-12-24T06:38:54.347Z,99983.34
2022-12-24T06:41:22.757Z,99984.91
2022-12-24T06:43:52.921Z,99986.63
2022-12-24T06:46:21.336Z,99991.03
2022-12-24T06:48:48.882Z,100011.69
2022-12-24T06:51:19.791Z,100019.06
2022-12-24T06:53:50.535Z,100020.66
2022-12-24T06:56:20.584Z,100040.66
2022-12-24T06:58:48.682Z,100047.66
2022-12-24T07:01:19.629Z,100044.25
2022-12-24T07:03:47.967Z,100049.44
2022-12-24T07:06:29.698Z,100062.34
2022-12-24T07:08:57.340Z,100042.66
2022-12-24T07:11:26.570Z,100047.25
2022-12-24T07:13:53.944Z,100047.25
2022-12-24T07:16:21.726Z,100046.53
2022-12-24T07:18:49.054Z,100058.91
2022-12-24T07:21:16.252Z,100054.53
2022-12-24T07:23:43.885Z,100057.13
2022-12-24T07:26:11.553Z,100048.41
2022-12-24T07:28:38.845Z,100059.13
2022-12-24T07:31:06.306Z,100064.31
2022-12-24T07:33:33.569Z,100058.41
2022-12-24T07:36:06.724Z,100044.84
2022-12-24T07:38:35.148Z,100055.94
2022-12-24T07:41:02.450Z,100058.53
2022-12-24T07:43:30.038Z,100070.34
2022-12-24T07:45:58.557Z,100085.34
2022-12-24T07:48:28.806Z,100095.66
2022-12-24T07:50:57.536Z,100099.97
2022-12-24T07:53:27.903Z,100086.56
2022-12-24T07:55:55.642Z,100099.97
2022-12-24T07:58:23.571Z,100115.47
2022-12-24T08:00:58.184Z,100108.50
2022-12-24T08:03:25.872Z,100128.16
2022-12-24T08:05:53.691Z,100145.94
2022-12-24T08:08:21.502Z,100148.34
2022-12-24T08:10:48.832Z,100154.38
2022-12-24T08:13:17.257Z,100130.59
2022-12-24T08:15:45.542Z,100136.69
2022-12-24T08:18:12.745Z,100122.00
2022-12-24T08:20:41.661Z,100117.00
2022-12-24T08:23:09.567Z,100113.59
2022-12-24T08:25:37.687Z,100122.63
2022-12-24T08:28:05.929Z,100127.81
2022-12-24T08:30:34.318Z,100131.22
2022-12-24T08:33:02.110Z,100147.09
2022-12-24T08:35:29.351Z,100142.31
2022-12-24T08:37:56.890Z,100141.81
2022-12-24T08:40:24.119Z,100137.53
2022-12-24T08:42:51.542Z,100136.63
2022-12-24T08:45:19.183Z,100146.13
2022-12-24T08:47:47.225Z,100161.03
2022-12-24T08:50:14.612Z,100155.94
2022-12-24T08:52:41.851Z,100135.03
2022-12-24T08:55:09.447Z,100109.53
2022-12-24T08:57:37.851Z,100115.41
2022-12-24T09:00:08.030Z,100132.00
2022-12-24T09:02:36.391Z,100136.91
2022-12-24T09:05:04.659Z,100122.22
2022-12-24T09:07:31.855Z,100110.59
2022-12-24T09:09:59.076Z,100120.34
2022-12-24T09:12:26.280Z,100148.66
2022-12-24T09:14:59.614Z,100142.44
2022-12-24T09:17:30.212Z,100140.63
2022-12-24T09:19:57.401Z,100149.25
2022-12-24T09:22:24.543Z,100157.94
2022-12-24T09:24:54.784Z,100166.34
2022-12-24T09:27:22.644Z,100168.44
2022-12-24T09:29:49.972Z,100174.06
2022-12-24T09:32:17.500Z,100175.06
2022-12-24T09:34:44.959Z,100176.50
2022-12-24T09:37:12.126Z,100181.31
2022-12-24T09:39:39.328Z,100174.00
2022-12-24T09:42:53.822Z,100176.72
2022-12-24T09:45:36.014Z,100185.50
2022-12-24T09:48:16.027Z,100167.78
2022-12-24T09:51:12.037Z,100158.69
2022-12-24T09:54:20.762Z,100167.22
2022-12-24T09:56:49.477Z,100157.50
2022-12-24T09:59:41.308Z,100155.28
2022-12-24T10:02:19.642Z,100155.28
2022-12-24T10:04:49.127Z,100156.78
2022-12-24T10:07:55.007Z,100170.41
2022-12-24T10:10:52.147Z,100176.44
2022-12-24T10:14:03.916Z,100180.41
2022-12-24T10:17:15.614Z,100177.72
2022-12-24T10:20:33.028Z,100178.91
2022-12-24T10:23:49.216Z,100171.09
2022-12-24T10:26:28.020Z,100178.50
2022-12-24T10:29:06.373Z,100173.50
2022-12-24T10:31:40.301Z,100184.31
2022-12-24T10:34:25.115Z,100183.53
2022-12-24T10:36:52.363Z,100184.31
2022-12-24T10:39:24.662Z,100172.91
2022-12-24T10:41:57.733Z,100160.47
2022-12-24T10:44:31.215Z,100168.69
2022-12-24T10:46:59.447Z,100177.69
2022-12-24T10:49:39.796Z,100171.09
2022-12-24T10:52:15.660Z,100172.97
2022-12-24T10:55:17.852Z,100181.50
2022-12-24T10:58:02.908Z,100178.91
2022-12-24T11:00:35.963Z,100171.28
2022-12-24T11:03:13.171Z,100173.47
2022-12-24T11:05:41.015Z,100163.38
2022-12-24T11:08:20.063Z,100165.88
2022-12-24T11:11:08.588Z,100158.44
2022-12-24T11:13:46.463Z,100160.34
2022-12-24T11:16:31.041Z,100160.81
2022-12-24T11:19:04.094Z,100149.28
2022-12-24T11:21:40.722Z,100136.53
2022-12-24T11:24:14.062Z,100136.00
2022-12-24T11:26:44.505Z,100121.41
2022-12-24T11:29:29.960Z,100132.22
2022-12-24T11:32:23.427Z,100141.00
2022-12-24T11:34:50.679Z,100148.66
2022-12-24T11:37:24.627Z,100157.88
2022-12-24T11:39:59.588Z,100158.41
2022-12-24T11:42:38.045Z,100158.22
2022-12-24T11:45:19.796Z,100165.84
2022-12-24T11:47:47.169Z,100153.00
2022-12-24T11:50:31.776Z,100163.22
2022-12-24T11:53:19.119Z,100166.66
2022-12-24T11:56:02.081Z,100154.41
2022-12-24T11:58:59.972Z,100152.81
2022-12-24T12:02:02.389Z,100165.03
2022-12-24T12:04:34.818Z,100170.63
2022-12-24T12:07:19.195Z,100172.81
2022-12-24T12:09:59.653Z,100183.34
2022-12-24T12:12:34.841Z,100176.41
2022-12-24T12:15:26.070Z,100171.38
2022-12-24T12:18:42.519Z,100155.94
2022-12-24T12:21:23.568Z,100161.72
2022-12-24T12:24:04.549Z,100161.09
2022-12-24T12:26:33.250Z,100173.25
2022-12-24T12:29:32.215Z,100171.59
2022-12-24T12:32:17.089Z,100152.38
2022-12-24T12:35:16.782Z,100162.09
2022-12-24T12:37:56.059Z,100159.75
2022-12-24T12:40:41.411Z,100160.03
2022-12-24T12:43:38.053Z,100151.03
2022-12-24T12:46:46.543Z,100154.00
2022-12-24T12:49:43.865Z,100149.25
2022-12-24T12:52:49.175Z,100145.97
2022-12-24T12:55:43.351Z,100165.53
2022-12-24T12:58:27.910Z,100175.84
2022-12-24T13:01:15.661Z,100174.47
2022-12-24T13:04:16.380Z,100187.75
2022-12-24T13:07:34.255Z,100181.63
2022-12-24T13:10:37.750Z,100179.63
2022-12-24T13:13:53.950Z,100177.50
2022-12-24T13:16:45.138Z,100178.03
2022-12-24T13:19:42.478Z,100186.63
2022-12-24T13:22:17.703Z,100201.31
2022-12-24T13:24:54.753Z,100196.69
2022-12-24T13:27:29.345Z,100196.47
2022-12-24T13:30:32.818Z,100196.28
2022-12-24T13:33:00.174Z,100215.53
2022-12-24T13:35:37.617Z,100208.34
2022-12-24T13:38:28.397Z,100197.91
2022-12-24T13:40:56.353Z,100192.09
2022-12-24T13:43:23.494Z,100192.72
2022-12-24T13:45:52.168Z,100202.50
2022-12-24T13:48:33.661Z,100202.50
2022-12-24T13:51:20.510Z,100212.66
2022-12-24T13:53:49.725Z,100225.78
2022-12-24T13:56:16.783Z,100220.84
2022-12-24T13:59:34.543Z,100227.06
2022-12-24T14:02:06.077Z,100233.50
2022-12-24T14:04:36.457Z,100225.47
2022-12-24T14:07:05.523Z,100236.50
2022-12-24T14:09:33.932Z,100235.41
2022-12-24T14:12:04.090Z,100229.19
2022-12-24T14:14:40.635Z,100240.63
2022-12-24T14:17:26.477Z,100236.13
2022-12-24T14:20:00.669Z,100230.00
2022-12-24T14:22:56.875Z,100236.22
2022-12-24T14:25:24.301Z,100230.91
2022-12-24T14:28:04.560Z,100228.97
2022-12-24T14:30:32.474Z,100233.91
2022-12-24T14:32:59.792Z,100235.53
2022-12-24T14:35:37.379Z,100231.00
2022-12-24T14:38:18.702Z,100237.13
2022-12-24T14:41:19.183Z,100237.00
2022-12-24T14:44:00.376Z,100228.28
2022-12-24T14:46:58.758Z,100232.63
2022-12-24T14:50:21.779Z,100234.41
2022-12-24T14:53:48.636Z,100246.53
2022-12-24T14:56:20.974Z,100248.03
2022-12-24T14:58:49.272Z,100250.66
2022-12-24T15:01:30.957Z,100243.63
2022-12-24T15:04:06.116Z,100246.22
2022-12-24T15:06:40.136Z,100249.63
2022-12-24T15:09:26.894Z,100260.06
2022-12-24T15:12:03.890Z,100259.03
2022-12-24T15:14:41.792Z,100282.38
2022-12-24T15:17:12.378Z,100295.19
2022-12-24T15:19:45.160Z,100303.81
2022-12-24T15:22:27.598Z,100316.75
2022-12-24T15:24:55.408Z,100317.44
2022-12-24T15:27:27.599Z,100320.16
2022-12-24T15:29:58.249Z,100315.16
2022-12-24T15:32:25.741Z,100324.56
2022-12-24T15:34:55.517Z,100335.78
2022-12-24T15:37:32.336Z,100337.56
2022-12-24T15:40:22.959Z,100338.94
2022-12-24T15:42:51.448Z,100336.44
2022-12-24T15:45:30.542Z,100330.34
2022-12-24T15:48:10.065Z,100344.88
2022-12-24T15:50:46.109Z,100336.34
2022-12-24T15:53:30.967Z,100346.75
2022-12-24T15:56:11.567Z,100335.38
2022-12-24T15:58:45.621Z,100337.97
2022-12-24T16:01:16.159Z,100338.06
2022-12-24T16:03:52.137Z,100343.84
2022-12-24T16:06:22.035Z,100361.28
2022-12-24T16:08:51.004Z,100366.59
2022-12-24T16:11:46.228Z,100374.41
2022-12-24T16:14:20.195Z,100376.81
2022-12-24T16:16:52.781Z,100383.00
2022-12-24T16:19:39.744Z,100377.81
2022-12-24T16:22:26.430Z,100388.22
2022-12-24T16:24:55.480Z,100400.34
2022-12-24T16:27:23.000Z,100391.63
2022-12-24T16:29:50.366Z,100390.72
2022-12-24T16:32:35.263Z,100394.94
2022-12-24T16:35:07.474Z,100394.81
2022-12-24T16:37:35.749Z,100407.63
2022-12-24T16:40:03.058Z,100402.44
2022-12-24T16:42:50.623Z,100403.31
2022-12-24T16:45:17.858Z,100400.59
2022-12-24T16:47:45.026Z,100398.09
2022-12-24T16:50:16.801Z,100387.69
2022-12-24T16:52:44.700Z,100392.78
2022-12-24T16:55:15.353Z,100404.00
2022-12-24T16:57:44.073Z,100405.59
2022-12-24T17:00:22.068Z,100407.41
2022-12-24T17:02:50.229Z,100411.72
2022-12-24T17:05:18.604Z,100416.00
2022-12-24T17:07:45.878Z,100409.91
2022-12-24T17:10:14.449Z,100414.22
2022-12-24T17:12:43.918Z,100414.22
2022-12-24T17:15:11.618Z,100413.28
2022-12-24T17:17:38.965Z,100415.91
2022-12-24T17:20:07.730Z,100414.22
2022-12-24T17:22:36.237Z,100419.41
2022-12-24T17:25:05.324Z,100426.41
2022-12-24T17:27:32.959Z,100416.91
2022-12-24T17:30:00.310Z,100423.81
2022-12-24T17:32:27.598Z,100426.41
2022-12-24T17:34:54.802Z,100435.84
2022-12-24T17:37:22.084Z,100439.44
2022-12-24T17:39:49.372Z,100433.25
2022-12-24T17:42:16.561Z,100441.81
2022-12-24T17:44:43.975Z,100437.31
2022-12-24T17:47:11.311Z,100436.41
2022-12-24T17:49:38.700Z,100434.59
2022-12-24T17:52:06.103Z,100441.50
2022-12-24T17:54:33.535Z,100438.00
2022-12-24T17:57:01.714Z,100437.00
2022-12-24T17:59:28.955Z,100455.31
2022-12-24T18:01:56.429Z,100456.03
2022-12-24T18:04:23.668Z,100457.94
2022-12-24T18:06:52.005Z,100457.22
2022-12-24T18:09:22.156Z,100470.13
2022-12-24T18:11:49.330Z,100470.94
2022-12-24T18:14:16.522Z,100477.84
2022-12-24T18:16:44.896Z,100476.03
2022-12-24T18:19:12.612Z,100473.44
2022-12-24T18:21:41.049Z,100475.13
2022-12-24T18:24:09.121Z,100471.75
2022-12-24T18:26:36.448Z,100472.63
2022-12-24T18:29:04.724Z,100470.94
2022-12-24T18:31:34.032Z,100470.84
2022-12-24T18:34:05.489Z,100470.63
2022-12-24T18:36:33.671Z,100460.19
2022-12-24T18:39:01.622Z,100469.69
2022-12-24T18:41:31.346Z,100472.41
2022-12-24T18:43:59.634Z,100468.00
2022-12-24T18:46:32.476Z,100467.22
2022-12-24T18:49:01.535Z,100467.22
2022-12-24T18:51:35.317Z,100467.22
2022-12-24T18:54:04.553Z,100463.81
2022-12-24T18:56:32.315Z,100462.00
2022-12-24T18:59:03.033Z,100466.31
2022-12-24T19:01:34.933Z,100467.22
2022-12-24T19:04:02.760Z,100466.31
2022-12-24T19:06:30.343Z,100472.41
2022-12-24T19:08:59.740Z,100472.31
2022-12-24T19:11:32.260Z,100468.13
2022-12-24T19:14:01.361Z,100477.72
2022-12-24T19:16:33.226Z,100479.44
2022-12-24T19:19:02.544Z,100494.03
2022-12-24T19:21:29.784Z,100489.84
2022-12-24T19:23:57.176Z,100488.03
2022-12-24T19:26:25.033Z,100493.22
2022-12-24T19:28:53.393Z,100502.88
2022-12-24T19:31:25.744Z,100503.09
2022-12-24T19:33:56.955Z,100503.31
2022-12-24T19:36:29.225Z,100498.88
2022-12-24T19:38:58.493Z,100497.09
2022-12-24T19:41:31.047Z,100503.88
2022-12-24T19:44:02.061Z,100514.28
2022-12-24T19:46:36.674Z,100520.28
2022-12-24T19:49:08.026Z,100521.09
2022-12-24T19:51:35.920Z,100525.50
2022-12-24T19:54:06.133Z,100524.69
2022-12-24T19:56:33.837Z,100527.63
2022-12-24T19:59:03.141Z,100531.94
2022-12-24T20:01:34.661Z,100534.56
2022-12-24T20:04:03.871Z,100540.41
2022-12-24T20:06:35.086Z,100546.31
2022-12-24T20:09:07.180Z,100554.13
2022-12-24T20:11:35.477Z,100561.72
2022-12-24T20:14:05.702Z,100560.03
2022-12-24T20:16:34.187Z,100563.72
2022-12-24T20:19:06.190Z,100563.97
2022-12-24T20:21:34.254Z,100571.53
2022-12-24T20:24:01.594Z,100567.94
2022-12-24T20:26:30.038Z,100574.94
2022-12-24T20:29:02.735Z,100581.94
2022-12-24T20:31:30.881Z,100576.53
2022-12-24T20:34:01.560Z,100581.84
2022-12-24T20:36:31.105Z,100572.47
2022-12-24T20:39:00.230Z,100579.56
2022-12-24T20:41:30.241Z,100573.59
2022-12-24T20:44:01.923Z,100563.19
2022-12-24T20:46:31.034Z,100566.56
2022-12-24T20:48:58.596Z,100564.75
2022-12-24T20:51:28.509Z,100564.88
2022-12-24T20:53:59.791Z,100568.38
2022-12-24T20:56:27.492Z,100568.16
2022-12-24T20:58:54.986Z,100576.97
2022-12-24T21:01:26.166Z,100571.53
2022-12-24T21:03:56.763Z,100569.75
2022-12-24T21:06:25.205Z,100578.47
2022-12-24T21:08:54.167Z,100575.97
2022-12-24T21:11:41.429Z,100582.97
2022-12-24T21:14:09.669Z,100586.63
2022-12-24T21:16:39.249Z,100596.91
2022-12-24T21:19:10.148Z,100606.41
2022-12-24T21:21:38.118Z,100603.91
2022-12-24T21:24:06.387Z,100603.91
2022-12-24T21:26:34.487Z,100604.59
2022-12-24T21:29:04.440Z,100614.09
2022-12-24T21:31:32.628Z,100610.03
2022-12-24T21:34:00.097Z,100609.34
2022-12-24T21:36:27.284Z,100613.41
2022-12-24T21:38:55.087Z,100617.75
2022-12-24T21:41:23.669Z,100620.44
2022-12-24T21:43:50.952Z,100622.03
2022-12-24T21:46:24.852Z,100612.53
2022-12-24T21:49:13.801Z,100616.81
2022-12-24T21:51:44.024Z,100620.13
2022-12-24T21:54:23.465Z,100614.56
2022-12-24T21:57:12.611Z,100622.38
2022-12-24T21:59:40.204Z,100629.63
2022-12-24T22:02:13.997Z,100623.25
2022-12-24T22:04:42.128Z,100624.97
2022-12-24T22:07:46.251Z,100624.97
2022-12-24T22:10:33.034Z,100628.59
2022-12-24T22:13:05.994Z,100620.66
2022-12-24T22:15:35.136Z,100633.78
2022-12-24T22:18:02.985Z,100625.88
2022-12-24T22:20:30.153Z,100624.28
2022-12-24T22:22:57.311Z,100621.56
2022-12-24T22:25:24.541Z,100623.38
2022-12-24T22:27:52.060Z,100621.56
2022-12-24T22:30:19.509Z,100625.75
2022-12-24T22:32:47.087Z,100623.16
2022-12-24T22:35:14.522Z,100622.28
2022-12-24T22:37:41.760Z,100631.75
2022-12-24T22:40:10.882Z,100634.47
2022-12-24T22:42:40.888Z,100640.50
2022-12-24T22:45:12.571Z,100642.19
2022-12-24T22:47:43.029Z,100636.84
2022-12-24T22:50:10.845Z,100641.50
2022-12-24T22:52:38.173Z,100649.19
2022-12-24T22:55:06.489Z,100648.94
2022-12-24T22:57:33.725Z,100654.28
2022-12-24T23:00:00.958Z,100655.19
2022-12-24T23:02:29.183Z,100653.63
2022-12-24T23:04:56.932Z,100650.31
2022-12-24T23:07:24.734Z,100642.63
2022-12-24T23:09:51.938Z,100651.25
2022-12-24T23:12:39.053Z,100654.50
2022-12-24T23:15:07.472Z,100657.22
2022-12-24T23:17:34.763Z,100660.75
2022-12-24T23:20:03.779Z,100661.66
2022-12-24T23:22:31.034Z,100664.25
2022-12-24T23:24:58.332Z,100663.22
2022-12-24T23:27:25.591Z,100671.94
2022-12-24T23:29:52.756Z,100667.63
2022-12-24T23:32:19.918Z,100665.03
2022-12-24T23:34:47.068Z,100671.84
2022-12-24T23:37:14.198Z,100670.00
2022-12-24T23:39:41.480Z,100671.59
2022-12-24T23:42:08.608Z,100674.97
2022-12-24T23:44:35.740Z,100676.94
2022-12-24T23:47:03.003Z,100676.13
2022-12-24T23:49:30.235Z,100674.31
2022-12-24T23:51:57.404Z,100673.41
2022-12-24T23:54:24.649Z,100666.63
2022-12-24T23:56:51.955Z,100662.31
2022-12-24T23:59:19.135Z,100665.59
